createdAt,value
2023-09-19T00:00:20.634Z,98166.78
2023-09-19T00:01:24.321Z,98169.16
2023-09-19T00:02:29.071Z,98167.41
2023-09-19T00:03:34.272Z,98164.56
2023-09-19T00:04:41.139Z,98168.84
2023-09-19T00:05:45.400Z,98171.09
2023-09-19T00:06:48.512Z,98147.78
2023-09-19T00:08:00.480Z,98177.78
2023-09-19T00:09:03.878Z,98166.47
2023-09-19T00:10:07.106Z,98153.06
2023-09-19T00:11:11.931Z,98163.75
2023-09-19T00:12:14.740Z,98169.66
2023-09-19T00:13:18.728Z,98175.06
2023-09-19T00:14:21.179Z,98174.28
2023-09-19T00:15:26.343Z,98164.88
2023-09-19T00:16:31.922Z,98169.84
2023-09-19T00:17:34.163Z,98144.75
2023-09-19T00:18:36.691Z,98170.75
2023-09-19T00:19:39.108Z,98168.06
2023-09-19T00:20:54.233Z,98171.56
2023-09-19T00:21:57.460Z,98173.16
2023-09-19T00:23:10.290Z,98169.50
2023-09-19T00:24:13.291Z,98173.47
2023-09-19T00:25:16.737Z,98182.41
2023-09-19T00:26:19.908Z,98188.00
2023-09-19T00:27:21.860Z,98189.91
2023-09-19T00:28:24.321Z,98188.31
2023-09-19T00:29:34.969Z,98196.13
2023-09-19T00:30:37.329Z,98189.59
2023-09-19T00:31:42.703Z,98186.69
2023-09-19T00:32:45.904Z,98189.91
2023-09-19T00:33:49.952Z,98200.44
2023-09-19T00:34:51.748Z,98195.66
2023-09-19T00:36:05.431Z,98203.94
2023-09-19T00:37:08.086Z,98200.13
2023-09-19T00:38:10.353Z,98205.06
2023-09-19T00:39:12.615Z,98204.28
2023-09-19T00:40:16.827Z,98209.69
2023-09-19T00:41:19.451Z,98201.56
2023-09-19T00:42:24.841Z,98206.34
2023-09-19T00:43:29.032Z,98208.56
2023-09-19T00:44:32.726Z,98207.44
2023-09-19T00:45:37.636Z,98207.78
2023-09-19T00:46:43.034Z,98215.59
2023-09-19T00:47:55.367Z,98208.09
2023-09-19T00:48:59.224Z,98201.38
2023-09-19T00:50:08.620Z,98210.31
2023-09-19T00:51:12.760Z,98205.06
2023-09-19T00:52:15.021Z,98202.69
2023-09-19T00:53:33.444Z,98207.59
2023-09-19T00:54:38.854Z,98214.78
2023-09-19T00:55:47.181Z,98211.59
2023-09-19T00:56:50.329Z,98211.09
2023-09-19T00:57:57.698Z,98215.25
2023-09-19T00:58:59.706Z,98210.00
2023-09-19T01:00:07.589Z,98209.81
2023-09-19T01:01:09.910Z,98214.44
2023-09-19T01:02:16.643Z,98217.94
2023-09-19T01:03:19.931Z,98212.84
2023-09-19T01:04:23.018Z,98213.16
2023-09-19T01:05:26.783Z,98213.66
2023-09-19T01:06:33.082Z,98221.28
2023-09-19T01:07:36.892Z,98220.50
2023-09-19T01:08:38.780Z,98214.13
2023-09-19T01:09:40.652Z,98220.50
2023-09-19T01:11:02.086Z,98219.09
2023-09-19T01:12:09.849Z,98218.59
2023-09-19T01:14:03.285Z,98225.97
2023-09-19T01:15:41.689Z,98221.81
2023-09-19T01:17:23.722Z,98214.91
2023-09-19T01:19:04.546Z,98231.41
2023-09-19T01:20:12.728Z,98236.91
2023-09-19T01:21:51.625Z,98229.44
2023-09-19T01:23:15.881Z,98243.94
2023-09-19T01:24:56.704Z,98243.16
2023-09-19T01:26:33.622Z,98253.97
2023-09-19T01:27:57.344Z,98249.66
2023-09-19T01:29:24.474Z,98244.56
2023-09-19T01:30:37.526Z,98245.34
2023-09-19T01:31:44.613Z,98246.59
2023-09-19T01:32:47.735Z,98241.31
2023-09-19T01:34:05.754Z,98250.59
2023-09-19T01:35:14.295Z,98249.91
2023-09-19T01:36:18.220Z,98241.16
2023-09-19T01:37:26.482Z,98247.84
2023-09-19T01:38:29.028Z,98246.56
2023-09-19T01:39:33.326Z,98250.88
2023-09-19T01:40:44.428Z,98250.75
2023-09-19T01:42:19.153Z,98244.53
2023-09-19T01:43:33.085Z,98251.69
2023-09-19T01:45:11.179Z,98245.53
2023-09-19T01:46:25.810Z,98246.28
2023-09-19T01:47:49.364Z,98247.88
2023-09-19T01:49:33.986Z,98247.25
2023-09-19T01:51:03.775Z,98243.94
2023-09-19T01:52:14.970Z,98252.34
2023-09-19T01:53:51.279Z,98252.66
2023-09-19T01:55:03.558Z,98253.25
2023-09-19T01:56:23.225Z,98255.16
2023-09-19T01:57:36.620Z,98257.09
2023-09-19T01:58:47.580Z,98253.69
2023-09-19T02:00:07.830Z,98257.88
2023-09-19T02:01:16.801Z,98252.59
2023-09-19T02:02:23.890Z,98248.41
2023-09-19T02:03:29.146Z,98256.84
2023-09-19T02:04:32.648Z,98249.66
2023-09-19T02:05:34.714Z,98264.97
2023-09-19T02:06:39.333Z,98255.09
2023-09-19T02:07:42.991Z,98262.91
2023-09-19T02:08:46.284Z,98264.28
2023-09-19T02:09:49.503Z,98267.50
2023-09-19T02:10:53.919Z,98265.91
2023-09-19T02:11:57.090Z,98269.09
2023-09-19T02:13:01.978Z,98270.22
2023-09-19T02:14:05.577Z,98267.50
2023-09-19T02:15:09.597Z,98257.75
2023-09-19T02:16:12.667Z,98265.91
2023-09-19T02:17:15.717Z,98263.50
2023-09-19T02:18:18.328Z,98267.00
2023-09-19T02:19:22.093Z,98267.63
2023-09-19T02:20:24.309Z,98263.34
2023-09-19T02:21:26.483Z,98271.63
2023-09-19T02:22:30.685Z,98276.88
2023-09-19T02:23:33.634Z,98265.25
2023-09-19T02:24:41.368Z,98271.78
2023-09-19T02:25:44.620Z,98275.44
2023-09-19T02:26:46.457Z,98268.75
2023-09-19T02:27:52.044Z,98265.72
2023-09-19T02:28:54.167Z,98268.44
2023-09-19T02:29:56.954Z,98266.97
2023-09-19T02:31:01.274Z,98265.38
2023-09-19T02:32:03.884Z,98273.03
2023-09-19T02:33:07.709Z,98269.38
2023-09-19T02:34:09.945Z,98268.25
2023-09-19T02:35:12.377Z,98260.56
2023-09-19T02:36:14.950Z,98265.88
2023-09-19T02:37:20.006Z,98274.78
2023-09-19T02:38:25.952Z,98268.09
2023-09-19T02:39:29.106Z,98279.91
2023-09-19T02:40:31.403Z,98279.91
2023-09-19T02:41:34.193Z,98272.41
2023-09-19T02:42:36.204Z,98262.69
2023-09-19T02:43:38.478Z,98276.22
2023-09-19T02:44:41.065Z,98273.63
2023-09-19T02:45:43.065Z,98270.13
2023-09-19T02:46:45.335Z,98280.84
2023-09-19T02:47:49.140Z,98273.00
2023-09-19T02:48:52.296Z,98277.00
2023-09-19T02:49:54.257Z,98275.41
2023-09-19T02:50:59.603Z,98272.19
2023-09-19T02:52:04.544Z,98271.88
2023-09-19T02:53:07.719Z,98269.31
2023-09-19T02:54:10.002Z,98269.31
2023-09-19T02:55:19.287Z,98284.63
2023-09-19T02:56:21.437Z,98275.69
2023-09-19T02:57:26.367Z,98281.75
2023-09-19T02:58:31.552Z,98274.75
2023-09-19T02:59:34.153Z,98278.38
2023-09-19T03:00:36.878Z,98287.97
2023-09-19T03:01:40.580Z,98284.78
2023-09-19T03:02:44.270Z,98288.59
2023-09-19T03:03:47.200Z,98290.97
2023-09-19T03:04:49.363Z,98291.13
2023-09-19T03:05:55.430Z,98294.81
2023-09-19T03:07:03.868Z,98292.09
2023-09-19T03:08:06.617Z,98288.28
2023-09-19T03:09:19.315Z,98294.81
2023-09-19T03:10:24.160Z,98290.50
2023-09-19T03:11:26.440Z,98293.53
2023-09-19T03:12:30.244Z,98295.44
2023-09-19T03:13:33.394Z,98292.22
2023-09-19T03:14:36.648Z,98285.41
2023-09-19T03:15:45.698Z,98296.72
2023-09-19T03:16:47.767Z,98286.31
2023-09-19T03:17:52.624Z,98296.81
2023-09-19T03:18:54.712Z,98296.53
2023-09-19T03:19:58.556Z,98298.41
2023-09-19T03:21:07.722Z,98300.63
2023-09-19T03:22:12.051Z,98304.16
2023-09-19T03:23:14.542Z,98304.16
2023-09-19T03:24:16.568Z,98311.47
2023-09-19T03:25:19.001Z,98309.06
2023-09-19T03:26:21.124Z,98307.47
2023-09-19T03:27:23.575Z,98302.38
2023-09-19T03:28:29.025Z,98299.66
2023-09-19T03:29:35.316Z,98308.28
2023-09-19T03:30:37.896Z,98302.38
2023-09-19T03:31:40.344Z,98307.00
2023-09-19T03:32:51.934Z,98298.88
2023-09-19T03:33:53.978Z,98314.50
2023-09-19T03:34:56.194Z,98306.00
2023-09-19T03:36:02.177Z,98306.31
2023-09-19T03:37:04.973Z,98306.50
2023-09-19T03:38:08.199Z,98303.50
2023-09-19T03:39:10.262Z,98301.19
2023-09-19T03:40:13.405Z,98310.59
2023-09-19T03:41:18.552Z,98316.53
2023-09-19T03:42:26.547Z,98311.41
2023-09-19T03:43:30.556Z,98311.91
2023-09-19T03:44:32.649Z,98309.16
2023-09-19T03:45:35.165Z,98308.84
2023-09-19T03:46:37.462Z,98305.03
2023-09-19T03:47:42.052Z,98298.31
2023-09-19T03:48:44.730Z,98311.41
2023-09-19T03:49:46.648Z,98304.41
2023-09-19T03:50:49.432Z,98309.00
2023-09-19T03:51:52.394Z,98305.81
2023-09-19T03:52:58.418Z,98318.72
2023-09-19T03:54:00.440Z,98315.53
2023-09-19T03:55:05.881Z,98313.75
2023-09-19T03:56:09.372Z,98320.47
2023-09-19T03:57:16.978Z,98307.31
2023-09-19T03:58:18.874Z,98304.91
2023-09-19T03:59:21.113Z,98309.06
2023-09-19T04:00:27.685Z,98304.59
2023-09-19T04:01:31.912Z,98312.34
2023-09-19T04:02:34.719Z,98315.34
2023-09-19T04:03:47.486Z,98307.56
2023-09-19T04:04:55.049Z,98316.81
2023-09-19T04:05:57.164Z,98308.63
2023-09-19T04:06:59.250Z,98315.84
2023-09-19T04:08:01.141Z,98320.47
2023-09-19T04:09:08.317Z,98313.63
2023-09-19T04:10:12.614Z,98313.94
2023-09-19T04:11:15.523Z,98315.84
2023-09-19T04:12:20.453Z,98313.44
2023-09-19T04:13:23.038Z,98319.97
2023-09-19T04:14:26.015Z,98313.03
2023-09-19T04:15:28.578Z,98322.69
2023-09-19T04:16:30.547Z,98332.88
2023-09-19T04:17:34.614Z,98322.69
2023-09-19T04:18:40.504Z,98325.97
2023-09-19T04:19:43.674Z,98328.28
2023-09-19T04:20:53.778Z,98329.28
2023-09-19T04:21:55.763Z,98333.50
2023-09-19T04:22:58.727Z,98333.19
2023-09-19T04:24:00.633Z,98328.59
2023-09-19T04:25:03.504Z,98348.63
2023-09-19T04:26:05.906Z,98336.69
2023-09-19T04:27:10.936Z,98335.09
2023-09-19T04:28:12.858Z,98333.81
2023-09-19T04:29:15.642Z,98342.22
2023-09-19T04:30:17.645Z,98338.19
2023-09-19T04:31:20.832Z,98352.44
2023-09-19T04:32:22.963Z,98356.75
2023-09-19T04:33:24.919Z,98352.44
2023-09-19T04:34:26.778Z,98357.88
2023-09-19T04:35:30.489Z,98352.44
2023-09-19T04:36:36.149Z,98354.63
2023-09-19T04:37:43.737Z,98357.56
2023-09-19T04:38:47.075Z,98358.66
2023-09-19T04:39:49.162Z,98357.88
2023-09-19T04:40:53.379Z,98361.69
2023-09-19T04:41:55.946Z,98362.75
2023-09-19T04:42:58.508Z,98356.84
2023-09-19T04:44:00.898Z,98358.72
2023-09-19T04:45:02.997Z,98354.44
2023-09-19T04:46:08.056Z,98363.06
2023-09-19T04:47:10.337Z,98372.78
2023-09-19T04:48:13.286Z,98361.75
2023-09-19T04:49:16.330Z,98360.63
2023-09-19T04:50:19.598Z,98361.75
2023-09-19T04:51:22.738Z,98363.34
2023-09-19T04:52:24.775Z,98364.47
2023-09-19T04:53:27.032Z,98361.25
2023-09-19T04:54:30.525Z,98353.75
2023-09-19T04:55:34.320Z,98353.94
2023-09-19T04:56:36.392Z,98367.16
2023-09-19T04:57:38.241Z,98362.38
2023-09-19T04:58:40.294Z,98363.66
2023-09-19T04:59:43.764Z,98366.97
2023-09-19T05:00:46.132Z,98374.47
2023-09-19T05:01:48.415Z,98372.09
2023-09-19T05:02:53.278Z,98369.88
2023-09-19T05:03:56.087Z,98362.38
2023-09-19T05:05:00.574Z,98378.59
2023-09-19T05:06:05.314Z,98379.41
2023-09-19T05:07:07.686Z,98382.91
2023-09-19T05:08:10.721Z,98382.72
2023-09-19T05:09:13.012Z,98372.81
2023-09-19T05:10:15.951Z,98385.44
2023-09-19T05:11:23.207Z,98384.81
2023-09-19T05:12:27.129Z,98381.31
2023-09-19T05:13:28.987Z,98378.91
2023-09-19T05:14:32.505Z,98377.94
2023-09-19T05:15:35.044Z,98386.53
2023-09-19T05:16:37.142Z,98387.94
2023-09-19T05:17:40.712Z,98389.56
2023-09-19T05:18:43.775Z,98393.06
2023-09-19T05:19:47.173Z,98396.56
2023-09-19T05:20:51.028Z,98394.97
2023-09-19T05:21:53.271Z,98391.75
2023-09-19T05:23:10.559Z,98390.53
2023-09-19T05:24:15.731Z,98397.88
2023-09-19T05:25:19.783Z,98395.25
2023-09-19T05:26:24.122Z,98398.47
2023-09-19T05:27:26.209Z,98398.09
2023-09-19T05:28:30.755Z,98403.38
2023-09-19T05:29:34.489Z,98405.28
2023-09-19T05:30:37.523Z,98399.88
2023-09-19T05:31:42.437Z,98401.59
2023-09-19T05:32:45.142Z,98407.97
2023-09-19T05:33:47.117Z,98411.31
2023-09-19T05:34:48.997Z,98400.31
2023-09-19T05:35:51.305Z,98405.91
2023-09-19T05:36:56.421Z,98413.69
2023-09-19T05:37:59.268Z,98405.91
2023-09-19T05:39:02.706Z,98407.50
2023-09-19T05:40:08.851Z,98395.88
2023-09-19T05:41:14.700Z,98397.28
2023-09-19T05:42:19.165Z,98411.31
2023-09-19T05:43:23.587Z,98420.22
2023-09-19T05:44:27.031Z,98421.03
2023-09-19T05:45:29.033Z,98417.63
2023-09-19T05:46:31.058Z,98427.53
2023-09-19T05:47:36.583Z,98422.75
2023-09-19T05:48:44.000Z,98424.34
2023-09-19T05:49:46.521Z,98434.06
2023-09-19T05:50:49.869Z,98433.56
2023-09-19T05:51:55.373Z,98429.25
2023-09-19T05:52:57.721Z,98417.81
2023-09-19T05:53:59.802Z,98420.53
2023-09-19T05:55:02.264Z,98418.94
2023-09-19T05:56:07.068Z,98418.94
2023-09-19T05:57:08.868Z,98418.75
2023-09-19T05:58:11.523Z,98424.34
2023-09-19T05:59:16.993Z,98434.66
2023-09-19T06:00:24.431Z,98435.34
2023-09-19T06:01:27.159Z,98440.28
2023-09-19T06:02:31.612Z,98441.19
2023-09-19T06:03:34.021Z,98435.16
2023-09-19T06:04:36.260Z,98441.69
2023-09-19T06:05:42.104Z,98452.19
2023-09-19T06:06:44.323Z,98449.81
2023-09-19T06:07:48.009Z,98445.50
2023-09-19T06:08:51.682Z,98447.72
2023-09-19T06:09:59.932Z,98449.81
2023-09-19T06:11:01.970Z,98439.59
2023-09-19T06:12:05.341Z,98443.09
2023-09-19T06:13:07.556Z,98445.00
2023-09-19T06:14:11.506Z,98455.22
2023-09-19T06:15:20.460Z,98451.09
2023-09-19T06:16:23.331Z,98456.81
2023-09-19T06:17:25.260Z,98450.41
2023-09-19T06:18:27.469Z,98457.44
2023-09-19T06:19:29.756Z,98460.13
2023-09-19T06:20:33.583Z,98455.00
2023-09-19T06:21:35.843Z,98448.78
2023-09-19T06:22:38.920Z,98455.31
2023-09-19T06:23:41.048Z,98462.84
2023-09-19T06:24:43.071Z,98449.88
2023-09-19T06:25:45.290Z,98459.59
2023-09-19T06:26:47.250Z,98456.63
2023-09-19T06:27:55.290Z,98461.72
2023-09-19T06:28:57.268Z,98454.00
2023-09-19T06:29:59.308Z,98458.94
2023-09-19T06:31:04.140Z,98456.53
2023-09-19T06:32:12.747Z,98460.03
2023-09-19T06:33:18.537Z,98459.94
2023-09-19T06:34:22.125Z,98460.22
2023-09-19T06:35:27.514Z,98469.22
2023-09-19T06:36:29.644Z,98466.03
2023-09-19T06:37:31.920Z,98459.63
2023-09-19T06:38:37.806Z,98464.56
2023-09-19T06:39:40.008Z,98464.28
2023-09-19T06:40:43.997Z,98463.00
2023-09-19T06:41:47.234Z,98466.50
2023-09-19T06:42:54.004Z,98469.81
2023-09-19T06:43:56.235Z,98467.41
2023-09-19T06:44:58.090Z,98467.72
2023-09-19T06:46:01.119Z,98471.78
2023-09-19T06:47:04.180Z,98473.44
2023-09-19T06:48:08.382Z,98476.41
2023-09-19T06:49:11.914Z,98476.22
2023-09-19T06:50:20.354Z,98485.44
2023-09-19T06:51:22.833Z,98486.53
2023-09-19T06:52:24.966Z,98472.81
2023-09-19T06:53:26.955Z,98470.19
2023-09-19T06:54:33.204Z,98478.00
2023-09-19T06:55:36.474Z,98484.19
2023-09-19T06:56:39.826Z,98482.59
2023-09-19T06:57:41.780Z,98482.91
2023-09-19T06:58:44.992Z,98492.41
2023-09-19T06:59:48.333Z,98489.22
2023-09-19T07:00:51.327Z,98489.22
2023-09-19T07:01:53.958Z,98498.41
2023-09-19T07:03:05.604Z,98494.50
2023-09-19T07:04:07.826Z,98493.50
2023-09-19T07:05:11.357Z,98500.81
2023-09-19T07:06:15.362Z,98495.91
2023-09-19T07:07:17.505Z,98492.91
2023-09-19T07:08:20.066Z,98495.13
2023-09-19T07:09:23.777Z,98491.81
2023-09-19T07:10:27.321Z,98486.09
2023-09-19T07:11:31.955Z,98485.50
2023-09-19T07:12:36.975Z,98502.25
2023-09-19T07:13:39.869Z,98491.13
2023-09-19T07:14:42.166Z,98495.13
2023-09-19T07:15:48.143Z,98503.25
2023-09-19T07:16:50.688Z,98495.75
2023-09-19T07:17:55.114Z,98500.25
2023-09-19T07:18:57.985Z,98502.63
2023-09-19T07:20:00.378Z,98500.75
2023-09-19T07:21:06.458Z,98510.97
2023-09-19T07:22:09.032Z,98507.97
2023-09-19T07:23:10.926Z,98515.47
2023-09-19T07:24:14.797Z,98511.66
2023-09-19T07:25:18.018Z,98513.06
2023-09-19T07:26:20.338Z,98513.88
2023-09-19T07:27:22.838Z,98525.19
2023-09-19T07:28:24.765Z,98522.44
2023-09-19T07:29:27.605Z,98518.13
2023-09-19T07:30:30.523Z,98520.53
2023-09-19T07:31:32.707Z,98526.13
2023-09-19T07:32:38.072Z,98526.13
2023-09-19T07:33:41.583Z,98533.66
2023-09-19T07:34:45.857Z,98529.94
2023-09-19T07:35:51.529Z,98532.28
2023-09-19T07:36:54.263Z,98533.66
2023-09-19T07:37:57.847Z,98540.97
2023-09-19T07:39:13.146Z,98534.13
2023-09-19T07:40:25.838Z,98537.06
2023-09-19T07:41:30.145Z,98538.38
2023-09-19T07:42:33.145Z,98534.66
2023-09-19T07:43:35.367Z,98544.38
2023-09-19T07:44:38.665Z,98535.25
2023-09-19T07:45:40.929Z,98540.88
2023-09-19T07:46:43.183Z,98540.09
2023-09-19T07:47:50.573Z,98541.88
2023-09-19T07:48:53.161Z,98549.19
2023-09-19T07:49:57.247Z,98539.78
2023-09-19T07:51:08.384Z,98530.97
2023-09-19T07:52:11.432Z,98546.97
2023-09-19T07:53:14.601Z,98541.06
2023-09-19T07:54:18.093Z,98556.19
2023-09-19T07:55:25.000Z,98558.59
2023-09-19T07:56:28.751Z,98557.00
2023-09-19T07:57:31.187Z,98550.78
2023-09-19T07:58:34.542Z,98554.78
2023-09-19T07:59:37.586Z,98560.19
2023-09-19T08:00:40.029Z,98559.09
2023-09-19T08:01:42.122Z,98555.91
2023-09-19T08:02:45.291Z,98547.59
2023-09-19T08:03:49.562Z,98556.69
2023-09-19T08:04:53.532Z,98559.94
2023-09-19T08:05:59.084Z,98553.09
2023-09-19T08:07:01.604Z,98553.09
2023-09-19T08:08:04.155Z,98554.22
2023-09-19T08:09:10.026Z,98552.63
2023-09-19T08:10:16.824Z,98559.31
2023-09-19T08:11:22.863Z,98561.41
2023-09-19T08:12:24.876Z,98563.31
2023-09-19T08:13:27.477Z,98566.34
2023-09-19T08:14:30.272Z,98555.50
2023-09-19T08:15:32.602Z,98564.13
2023-09-19T08:16:34.765Z,98563.31
2023-09-19T08:17:37.055Z,98566.53
2023-09-19T08:18:41.527Z,98559.50
2023-09-19T08:19:45.987Z,98570.03
2023-09-19T08:20:53.721Z,98574.88
2023-09-19T08:22:05.456Z,98561.63
2023-09-19T08:23:09.385Z,98569.72
2023-09-19T08:24:11.232Z,98579.19
2023-09-19T08:25:13.550Z,98581.88
2023-09-19T08:26:15.574Z,98581.06
2023-09-19T08:27:19.362Z,98582.97
2023-09-19T08:28:25.920Z,98576.47
2023-09-19T08:29:31.061Z,98578.88
2023-09-19T08:30:35.907Z,98578.56
2023-09-19T08:31:38.704Z,98574.03
2023-09-19T08:32:43.632Z,98577.75
2023-09-19T08:33:50.097Z,98576.97
2023-09-19T08:34:52.381Z,98581.28
2023-09-19T08:35:57.641Z,98580.66
2023-09-19T08:36:59.536Z,98572.66
2023-09-19T08:38:05.176Z,98576.66
2023-09-19T08:39:07.302Z,98580.66
2023-09-19T08:40:14.097Z,98586.88
2023-09-19T08:41:19.537Z,98576.06
2023-09-19T08:42:26.417Z,98577.97
2023-09-19T08:43:29.478Z,98582.25
2023-09-19T08:44:37.492Z,98585.28
2023-09-19T08:45:41.072Z,98576.06
2023-09-19T08:46:45.208Z,98588.19
2023-09-19T08:47:58.961Z,98589.00
2023-09-19T08:49:30.301Z,98596.91
2023-09-19T08:50:34.608Z,98595.41
2023-09-19T08:51:47.440Z,98593.69
2023-09-19T08:52:56.214Z,98596.69
2023-09-19T08:54:09.020Z,98588.09
2023-09-19T08:55:23.185Z,98595.09
2023-09-19T08:56:28.450Z,98590.78
2023-09-19T08:57:34.574Z,98597.31
2023-09-19T08:58:48.089Z,98588.28
2023-09-19T08:59:50.943Z,98598.41
2023-09-19T09:00:56.419Z,98589.00
2023-09-19T09:02:00.234Z,98598.72
2023-09-19T09:03:05.213Z,98596.81
2023-09-19T09:04:14.263Z,98601.13
2023-09-19T09:05:24.358Z,98596.81
2023-09-19T09:06:29.291Z,98598.41
2023-09-19T09:07:31.780Z,98594.59
2023-09-19T09:08:34.255Z,98607.66
2023-09-19T09:09:37.080Z,98601.94
2023-09-19T09:10:39.286Z,98603.34
2023-09-19T09:11:42.499Z,98600.63
2023-09-19T09:12:45.066Z,98599.81
2023-09-19T09:13:49.295Z,98599.22
2023-09-19T09:14:52.203Z,98606.22
2023-09-19T09:15:55.702Z,98601.13
2023-09-19T09:17:00.198Z,98604.03
2023-09-19T09:18:04.023Z,98601.00
2023-09-19T09:19:06.863Z,98596.22
2023-09-19T09:20:11.097Z,98606.44
2023-09-19T09:21:14.845Z,98598.31
2023-09-19T09:22:17.676Z,98601.81
2023-09-19T09:23:19.979Z,98596.69
2023-09-19T09:24:34.939Z,98604.34
2023-09-19T09:25:58.283Z,98594.53
2023-09-19T09:27:01.146Z,98597.34
2023-09-19T09:28:04.386Z,98593.34
2023-09-19T09:29:06.311Z,98591.47
2023-09-19T09:30:09.410Z,98593.66
2023-09-19T09:31:25.901Z,98601.56
2023-09-19T09:32:32.714Z,98599.56
2023-09-19T09:33:37.042Z,98595.44
2023-09-19T09:34:39.095Z,98590.31
2023-09-19T09:36:03.796Z,98602.25
2023-09-19T09:37:06.280Z,98593.84
2023-09-19T09:38:10.836Z,98592.72
2023-09-19T09:39:26.365Z,98588.91
2023-09-19T09:40:53.388Z,98599.75
2023-09-19T09:41:55.295Z,98596.94
2023-09-19T09:43:00.023Z,98592.41
2023-09-19T09:44:19.070Z,98597.31
2023-09-19T09:45:35.103Z,98589.81
2023-09-19T09:47:16.163Z,98588.72
2023-09-19T09:48:33.082Z,98587.81
2023-09-19T09:49:35.761Z,98590.91
2023-09-19T09:50:52.686Z,98588.22
2023-09-19T09:52:12.298Z,98591.03
2023-09-19T09:53:33.790Z,98585.31
2023-09-19T09:54:40.476Z,98580.41
2023-09-19T09:56:02.490Z,98587.69
2023-09-19T09:57:24.407Z,98577.78
2023-09-19T09:58:30.423Z,98582.81
2023-09-19T09:59:52.093Z,98581.31
2023-09-19T10:01:03.947Z,98582.81
2023-09-19T10:02:06.386Z,98583.09
2023-09-19T10:03:24.690Z,98586.22
2023-09-19T10:04:37.819Z,98589.00
2023-09-19T10:05:46.541Z,98588.09
2023-09-19T10:06:52.857Z,98578.59
2023-09-19T10:08:01.602Z,98594.75
2023-09-19T10:09:30.559Z,98591.72
2023-09-19T10:10:44.057Z,98592.22
2023-09-19T10:12:03.100Z,98586.91
2023-09-19T10:13:08.632Z,98592.53
2023-09-19T10:14:24.841Z,98597.13
2023-09-19T10:15:33.195Z,98588.53
2023-09-19T10:16:40.414Z,98602.56
2023-09-19T10:17:47.979Z,98590.00
2023-09-19T10:18:56.463Z,98588.53
2023-09-19T10:20:02.362Z,98585.31
2023-09-19T10:21:06.091Z,98590.13
2023-09-19T10:22:10.953Z,98583.91
2023-09-19T10:23:14.174Z,98578.09
2023-09-19T10:24:18.741Z,98590.72
2023-09-19T10:25:24.041Z,98591.53
2023-09-19T10:26:32.277Z,98589.31
2023-09-19T10:27:38.987Z,98585.63
2023-09-19T10:28:41.376Z,98574.38
2023-09-19T10:29:48.367Z,98585.31
2023-09-19T10:30:53.405Z,98585.72
2023-09-19T10:31:59.871Z,98585.63
2023-09-19T10:33:06.841Z,98578.31
2023-09-19T10:34:11.112Z,98589.41
2023-09-19T10:35:17.818Z,98592.63
2023-09-19T10:36:21.599Z,98595.94
2023-09-19T10:37:28.571Z,98588.59
2023-09-19T10:38:34.155Z,98591.03
2023-09-19T10:39:41.950Z,98588.81
2023-09-19T10:40:47.522Z,98586.69
2023-09-19T10:41:59.855Z,98586.63
2023-09-19T10:43:08.997Z,98595.03
2023-09-19T10:44:11.284Z,98585.09
2023-09-19T10:45:17.087Z,98585.91
2023-09-19T10:46:19.611Z,98588.13
2023-09-19T10:48:28.010Z,98581.28
2023-09-19T10:49:32.632Z,98583.19
2023-09-19T10:50:56.687Z,98587.03
2023-09-19T10:52:03.010Z,98576.91
2023-09-19T10:53:09.817Z,98580.72
2023-09-19T10:54:21.383Z,98586.31
2023-09-19T10:55:25.311Z,98580.50
2023-09-19T10:56:42.842Z,98586.31
2023-09-19T10:57:48.110Z,98588.81
2023-09-19T10:58:50.881Z,98581.28
2023-09-19T11:00:28.109Z,98581.50
2023-09-19T11:01:49.459Z,98578.28
2023-09-19T11:03:10.432Z,98577.97
2023-09-19T11:04:33.505Z,98573.97
2023-09-19T11:05:36.239Z,98567.06
2023-09-19T11:06:42.681Z,98568.88
2023-09-19T11:08:06.440Z,98567.06
2023-09-19T11:09:11.365Z,98577.59
2023-09-19T11:10:50.910Z,98576.69
2023-09-19T11:11:56.799Z,98573.16
2023-09-19T11:12:59.580Z,98581.91
2023-09-19T11:14:29.965Z,98573.88
2023-09-19T11:16:06.193Z,98577.19
2023-09-19T11:17:16.940Z,98573.69
2023-09-19T11:18:44.142Z,98571.28
2023-09-19T11:20:13.338Z,98572.16
2023-09-19T11:21:32.047Z,98565.94
2023-09-19T11:22:58.971Z,98570.56
2023-09-19T11:24:25.900Z,98567.53
2023-09-19T11:25:39.442Z,98569.09
2023-09-19T11:26:53.339Z,98560.75
2023-09-19T11:28:08.903Z,98571.66
2023-09-19T11:29:31.262Z,98566.25
2023-09-19T11:30:35.460Z,98565.84
2023-09-19T11:31:51.357Z,98556.66
2023-09-19T11:33:30.295Z,98556.63
2023-09-19T11:34:39.540Z,98563.25
2023-09-19T11:36:20.609Z,98551.53
2023-09-19T11:37:34.306Z,98555.34
2023-09-19T11:38:51.225Z,98553.72
2023-09-19T11:40:18.323Z,98550.91
2023-09-19T11:41:23.992Z,98545.41
2023-09-19T11:42:55.997Z,98555.22
2023-09-19T11:44:05.243Z,98551.31
2023-09-19T11:45:07.527Z,98550.00
2023-09-19T11:46:10.113Z,98553.03
2023-09-19T11:47:13.673Z,98552.22
2023-09-19T11:48:19.582Z,98542.50
2023-09-19T11:49:31.330Z,98541.28
2023-09-19T11:50:35.916Z,98539.19
2023-09-19T11:51:46.629Z,98544.38
2023-09-19T11:52:49.903Z,98543.41
2023-09-19T11:53:53.468Z,98536.06
2023-09-19T11:55:03.298Z,98539.47
2023-09-19T11:56:11.378Z,98541.06
2023-09-19T11:57:22.785Z,98547.66
2023-09-19T11:58:27.609Z,98545.88
2023-09-19T11:59:31.734Z,98542.38
2023-09-19T12:00:36.685Z,98543.50
2023-09-19T12:01:51.550Z,98545.28
2023-09-19T12:03:04.203Z,98548.47
2023-09-19T12:04:07.036Z,98538.56
2023-09-19T12:05:10.665Z,98539.66
2023-09-19T12:06:16.014Z,98542.38
2023-09-19T12:07:19.745Z,98540.97
2023-09-19T12:08:22.780Z,98543.38
2023-09-19T12:09:26.473Z,98536.34
2023-09-19T12:10:29.030Z,98532.34
2023-09-19T12:11:36.974Z,98539.06
2023-09-19T12:12:39.114Z,98528.22
2023-09-19T12:13:49.962Z,98537.03
2023-09-19T12:14:52.449Z,98536.22
2023-09-19T12:16:01.617Z,98526.00
2023-09-19T12:17:06.224Z,98516.69
2023-09-19T12:18:08.984Z,98521.81
2023-09-19T12:19:24.126Z,98506.56
2023-09-19T12:20:26.212Z,98526.81
2023-09-19T12:21:36.758Z,98523.59
2023-09-19T12:22:47.925Z,98524.28
2023-09-19T12:24:07.761Z,98523.56
2023-09-19T12:25:12.086Z,98523.78
2023-09-19T12:26:14.750Z,98525.19
2023-09-19T12:27:17.205Z,98516.09
2023-09-19T12:28:19.280Z,98520.59
2023-09-19T12:29:23.236Z,98512.78
2023-09-19T12:30:37.248Z,98520.50
2023-09-19T12:31:59.036Z,98508.41
2023-09-19T12:33:01.167Z,98519.97
2023-09-19T12:34:04.004Z,98510.88
2023-09-19T12:35:12.157Z,98506.56
2023-09-19T12:36:31.250Z,98510.16
2023-09-19T12:37:37.164Z,98505.63
2023-09-19T12:38:39.294Z,98506.75
2023-09-19T12:39:45.536Z,98498.94
2023-09-19T12:40:52.530Z,98491.91
2023-09-19T12:41:55.332Z,98504.34
2023-09-19T12:43:00.120Z,98502.44
2023-09-19T12:44:03.560Z,98495.41
2023-09-19T12:45:10.510Z,98501.00
2023-09-19T12:46:12.414Z,98489.34
2023-09-19T12:47:25.358Z,98501.00
2023-09-19T12:48:32.669Z,98498.00
2023-09-19T12:49:37.087Z,98486.19
2023-09-19T12:51:13.147Z,98489.56
2023-09-19T12:52:15.108Z,98490.69
2023-09-19T12:53:31.313Z,98494.56
2023-09-19T12:54:42.302Z,98494.56
2023-09-19T12:55:44.982Z,98480.47
2023-09-19T12:56:48.926Z,98486.97
2023-09-19T12:58:14.346Z,98488.25
2023-09-19T12:59:16.961Z,98485.28
2023-09-19T13:00:19.070Z,98490.19
2023-09-19T13:01:21.957Z,98493.41
2023-09-19T13:02:25.585Z,98487.16
2023-09-19T13:03:37.232Z,98474.06
2023-09-19T13:04:41.508Z,98483.16
2023-09-19T13:05:57.123Z,98490.75